sensor_id;sensor_type;location;lat;lon;timestamp;P1;durP1;ratioP1;P2;durP2;ratioP2
19747;SDS011;10032;51.386;12.516;2024-01-16T00:00:33;2.43;;;1.80;;
19747;SDS011;10032;51.386;12.516;2024-01-16T00:02:58;2.30;;;2.10;;
19747;SDS011;10032;51.386;12.516;2024-01-16T00:05:24;1.97;;;1.63;;
19747;SDS011;10032;51.386;12.516;2024-01-16T00:07:49;3.07;;;2.07;;
19747;SDS011;10032;51.386;12.516;2024-01-16T00:10:14;8.37;;;2.93;;
19747;SDS011;10032;51.386;12.516;2024-01-16T00:12:41;2.20;;;1.57;;
19747;SDS011;10032;51.386;12.516;2024-01-16T00:15:06;3.73;;;2.33;;
19747;SDS011;10032;51.386;12.516;2024-01-16T00:17:32;2.17;;;1.67;;
19747;SDS011;10032;51.386;12.516;2024-01-16T00:19:57;2.50;;;1.80;;
19747;SDS011;10032;51.386;12.516;2024-01-16T00:22:26;1.97;;;1.73;;
19747;SDS011;10032;51.386;12.516;2024-01-16T00:24:54;2.53;;;1.70;;
19747;SDS011;10032;51.386;12.516;2024-01-16T00:27:20;2.10;;;1.60;;
19747;SDS011;10032;51.386;12.516;2024-01-16T00:29:45;3.17;;;2.03;;
19747;SDS011;10032;51.386;12.516;2024-01-16T00:32:10;5.10;;;2.03;;
19747;SDS011;10032;51.386;12.516;2024-01-16T00:34:36;2.00;;;1.50;;
19747;SDS011;10032;51.386;12.516;2024-01-16T00:37:01;1.73;;;1.60;;
19747;SDS011;10032;51.386;12.516;2024-01-16T00:39:26;3.37;;;2.13;;
19747;SDS011;10032;51.386;12.516;2024-01-16T00:41:52;2.60;;;1.60;;
19747;SDS011;10032;51.386;12.516;2024-01-16T00:44:17;2.50;;;1.53;;
19747;SDS011;10032;51.386;12.516;2024-01-16T00:46:43;2.67;;;1.90;;
19747;SDS011;10032;51.386;12.516;2024-01-16T00:49:08;2.87;;;2.00;;
19747;SDS011;10032;51.386;12.516;2024-01-16T00:51:34;1.70;;;1.53;;
19747;SDS011;10032;51.386;12.516;2024-01-16T00:53:59;2.03;;;1.80;;
19747;SDS011;10032;51.386;12.516;2024-01-16T00:56:25;2.50;;;1.77;;
19747;SDS011;10032;51.386;12.516;2024-01-16T00:58:52;2.60;;;1.53;;
19747;SDS011;10032;51.386;12.516;2024-01-16T01:01:19;1.87;;;1.60;;
19747;SDS011;10032;51.386;12.516;2024-01-16T01:03:44;3.40;;;2.53;;
19747;SDS011;10032;51.386;12.516;2024-01-16T01:06:10;2.20;;;1.73;;
19747;SDS011;10032;51.386;12.516;2024-01-16T01:08:36;2.23;;;1.73;;
19747;SDS011;10032;51.386;12.516;2024-01-16T01:11:01;2.83;;;1.73;;
19747;SDS011;10032;51.386;12.516;2024-01-16T01:13:26;2.23;;;1.83;;
19747;SDS011;10032;51.386;12.516;2024-01-16T01:15:53;3.87;;;1.97;;
19747;SDS011;10032;51.386;12.516;2024-01-16T01:18:18;1.70;;;1.60;;
19747;SDS011;10032;51.386;12.516;2024-01-16T01:20:43;1.73;;;1.30;;
19747;SDS011;10032;51.386;12.516;2024-01-16T01:23:09;1.50;;;1.40;;
19747;SDS011;10032;51.386;12.516;2024-01-16T01:25:34;1.33;;;1.30;;
19747;SDS011;10032;51.386;12.516;2024-01-16T01:28:00;2.30;;;1.47;;
19747;SDS011;10032;51.386;12.516;2024-01-16T01:30:25;1.43;;;1.30;;
19747;SDS011;10032;51.386;12.516;2024-01-16T01:32:51;3.90;;;1.83;;
19747;SDS011;10032;51.386;12.516;2024-01-16T01:35:16;1.33;;;1.23;;
19747;SDS011;10032;51.386;12.516;2024-01-16T01:37:42;2.23;;;1.27;;
19747;SDS011;10032;51.386;12.516;2024-01-16T01:40:08;1.37;;;1.27;;
19747;SDS011;10032;51.386;12.516;2024-01-16T01:42:34;1.97;;;1.30;;
19747;SDS011;10032;51.386;12.516;2024-01-16T01:44:59;3.90;;;1.50;;
19747;SDS011;10032;51.386;12.516;2024-01-16T01:47:25;0.90;;;0.90;;
19747;SDS011;10032;51.386;12.516;2024-01-16T01:49:51;1.57;;;1.00;;
19747;SDS011;10032;51.386;12.516;2024-01-16T01:52:16;1.00;;;1.00;;
19747;SDS011;10032;51.386;12.516;2024-01-16T01:54:43;1.17;;;1.07;;
19747;SDS011;10032;51.386;12.516;2024-01-16T01:57:09;2.57;;;2.37;;
19747;SDS011;10032;51.386;12.516;2024-01-16T01:59:36;1.37;;;1.30;;
19747;SDS011;10032;51.386;12.516;2024-01-16T02:02:01;6.57;;;1.40;;
19747;SDS011;10032;51.386;12.516;2024-01-16T02:04:28;1.30;;;1.20;;
19747;SDS011;10032;51.386;12.516;2024-01-16T02:06:55;0.80;;;0.80;;
19747;SDS011;10032;51.386;12.516;2024-01-16T02:09:21;1.40;;;1.10;;
19747;SDS011;10032;51.386;12.516;2024-01-16T02:11:47;2.87;;;1.37;;
19747;SDS011;10032;51.386;12.516;2024-01-16T02:14:13;1.47;;;1.03;;
19747;SDS011;10032;51.386;12.516;2024-01-16T02:16:40;0.87;;;0.80;;
19747;SDS011;10032;51.386;12.516;2024-01-16T02:19:07;0.73;;;0.73;;
19747;SDS011;10032;51.386;12.516;2024-01-16T02:21:48;0.90;;;0.90;;
19747;SDS011;10032;51.386;12.516;2024-01-16T02:24:16;1.63;;;1.27;;
19747;SDS011;10032;51.386;12.516;2024-01-16T02:26:43;0.80;;;0.80;;
19747;SDS011;10032;51.386;12.516;2024-01-16T02:29:09;1.20;;;1.07;;
19747;SDS011;10032;51.386;12.516;2024-01-16T02:31:34;0.97;;;0.80;;
19747;SDS011;10032;51.386;12.516;2024-01-16T02:34:00;16.23;;;1.67;;
19747;SDS011;10032;51.386;12.516;2024-01-16T02:36:28;1.50;;;0.97;;
19747;SDS011;10032;51.386;12.516;2024-01-16T02:38:54;1.30;;;1.20;;
19747;SDS011;10032;51.386;12.516;2024-01-16T02:41:20;1.63;;;1.23;;
19747;SDS011;10032;51.386;12.516;2024-01-16T02:43:45;2.63;;;1.30;;
19747;SDS011;10032;51.386;12.516;2024-01-16T02:46:11;1.50;;;1.40;;
19747;SDS011;10032;51.386;12.516;2024-01-16T02:48:36;1.57;;;1.27;;
19747;SDS011;10032;51.386;12.516;2024-01-16T02:51:02;1.30;;;1.20;;
19747;SDS011;10032;51.386;12.516;2024-01-16T02:53:29;1.57;;;1.30;;
19747;SDS011;10032;51.386;12.516;2024-01-16T02:55:54;1.10;;;1.10;;
19747;SDS011;10032;51.386;12.516;2024-01-16T02:58:23;1.10;;;1.00;;
19747;SDS011;10032;51.386;12.516;2024-01-16T03:00:49;1.57;;;1.30;;
19747;SDS011;10032;51.386;12.516;2024-01-16T03:03:14;1.47;;;0.80;;
19747;SDS011;10032;51.386;12.516;2024-01-16T03:05:40;1.67;;;1.53;;
19747;SDS011;10032;51.386;12.516;2024-01-16T03:08:06;1.80;;;1.10;;
19747;SDS011;10032;51.386;12.516;2024-01-16T03:10:32;1.70;;;1.50;;
19747;SDS011;10032;51.386;12.516;2024-01-16T03:12:57;1.67;;;1.40;;
19747;SDS011;10032;51.386;12.516;2024-01-16T03:15:23;1.77;;;1.00;;
19747;SDS011;10032;51.386;12.516;2024-01-16T03:17:49;1.03;;;0.90;;
19747;SDS011;10032;51.386;12.516;2024-01-16T03:20:15;0.93;;;0.90;;
19747;SDS011;10032;51.386;12.516;2024-01-16T03:22:43;0.70;;;0.67;;
19747;SDS011;10032;51.386;12.516;2024-01-16T03:25:09;0.93;;;0.90;;
19747;SDS011;10032;51.386;12.516;2024-01-16T03:27:35;1.40;;;1.20;;
19747;SDS011;10032;51.386;12.516;2024-01-16T03:30:01;2.17;;;1.70;;
19747;SDS011;10032;51.386;12.516;2024-01-16T03:32:27;1.10;;;1.00;;
19747;SDS011;10032;51.386;12.516;2024-01-16T03:34:52;1.20;;;1.10;;
19747;SDS011;10032;51.386;12.516;2024-01-16T03:37:18;1.30;;;1.10;;
19747;SDS011;10032;51.386;12.516;2024-01-16T03:39:43;1.33;;;1.00;;
19747;SDS011;10032;51.386;12.516;2024-01-16T03:42:10;1.60;;;1.03;;
19747;SDS011;10032;51.386;12.516;2024-01-16T03:44:38;1.03;;;1.00;;
19747;SDS011;10032;51.386;12.516;2024-01-16T03:47:04;1.57;;;1.23;;
19747;SDS011;10032;51.386;12.516;2024-01-16T03:49:29;1.37;;;1.27;;
19747;SDS011;10032;51.386;12.516;2024-01-16T03:51:55;1.87;;;1.27;;
19747;SDS011;10032;51.386;12.516;2024-01-16T03:54:20;2.13;;;1.93;;
19747;SDS011;10032;51.386;12.516;2024-01-16T03:56:45;0.80;;;0.80;;
19747;SDS011;10032;51.386;12.516;2024-01-16T03:59:11;1.33;;;1.03;;
19747;SDS011;10032;51.386;12.516;2024-01-16T04:01:37;1.50;;;1.40;;
19747;SDS011;10032;51.386;12.516;2024-01-16T04:04:02;2.07;;;1.20;;
19747;SDS011;10032;51.386;12.516;2024-01-16T04:06:28;1.07;;;1.07;;
19747;SDS011;10032;51.386;12.516;2024-01-16T04:08:54;1.33;;;1.23;;
19747;SDS011;10032;51.386;12.516;2024-01-16T04:11:20;1.30;;;1.20;;
19747;SDS011;10032;51.386;12.516;2024-01-16T04:13:45;1.67;;;1.57;;
19747;SDS011;10032;51.386;12.516;2024-01-16T04:16:11;2.37;;;1.40;;
19747;SDS011;10032;51.386;12.516;2024-01-16T04:18:38;1.40;;;1.30;;
19747;SDS011;10032;51.386;12.516;2024-01-16T04:21:05;1.03;;;0.93;;
19747;SDS011;10032;51.386;12.516;2024-01-16T04:23:31;1.47;;;1.10;;
19747;SDS011;10032;51.386;12.516;2024-01-16T04:25:56;1.37;;;1.27;;
19747;SDS011;10032;51.386;12.516;2024-01-16T04:28:22;3.67;;;1.50;;
19747;SDS011;10032;51.386;12.516;2024-01-16T04:30:47;1.83;;;1.40;;
19747;SDS011;10032;51.386;12.516;2024-01-16T04:33:12;3.23;;;1.33;;
19747;SDS011;10032;51.386;12.516;2024-01-16T04:35:38;1.37;;;1.27;;
19747;SDS011;10032;51.386;12.516;2024-01-16T04:38:03;1.10;;;1.07;;
19747;SDS011;10032;51.386;12.516;2024-01-16T04:40:29;1.10;;;1.10;;
19747;SDS011;10032;51.386;12.516;2024-01-16T04:42:55;1.60;;;1.37;;
19747;SDS011;10032;51.386;12.516;2024-01-16T04:45:20;2.67;;;1.27;;
19747;SDS011;10032;51.386;12.516;2024-01-16T04:47:45;2.53;;;1.23;;
19747;SDS011;10032;51.386;12.516;2024-01-16T04:50:11;2.03;;;1.20;;
19747;SDS011;10032;51.386;12.516;2024-01-16T04:52:36;2.70;;;1.00;;
19747;SDS011;10032;51.386;12.516;2024-01-16T04:55:02;1.93;;;1.70;;
19747;SDS011;10032;51.386;12.516;2024-01-16T04:57:28;2.30;;;1.37;;
19747;SDS011;10032;51.386;12.516;2024-01-16T04:59:53;1.33;;;1.23;;
19747;SDS011;10032;51.386;12.516;2024-01-16T05:02:18;2.17;;;1.90;;
19747;SDS011;10032;51.386;12.516;2024-01-16T05:04:44;3.90;;;2.83;;
19747;SDS011;10032;51.386;12.516;2024-01-16T05:07:10;5.03;;;1.40;;
19747;SDS011;10032;51.386;12.516;2024-01-16T05:09:36;2.20;;;1.93;;
19747;SDS011;10032;51.386;12.516;2024-01-16T05:12:01;1.27;;;1.17;;
19747;SDS011;10032;51.386;12.516;2024-01-16T05:14:27;1.90;;;1.57;;
19747;SDS011;10032;51.386;12.516;2024-01-16T05:16:52;2.07;;;1.70;;
19747;SDS011;10032;51.386;12.516;2024-01-16T05:19:18;1.73;;;1.17;;
19747;SDS011;10032;51.386;12.516;2024-01-16T05:21:43;1.50;;;1.40;;
19747;SDS011;10032;51.386;12.516;2024-01-16T05:24:09;1.73;;;1.53;;
19747;SDS011;10032;51.386;12.516;2024-01-16T05:26:34;1.60;;;1.50;;
19747;SDS011;10032;51.386;12.516;2024-01-16T05:29:00;1.97;;;1.20;;
19747;SDS011;10032;51.386;12.516;2024-01-16T05:31:25;2.20;;;1.83;;
19747;SDS011;10032;51.386;12.516;2024-01-16T05:33:51;1.90;;;1.60;;
19747;SDS011;10032;51.386;12.516;2024-01-16T05:36:16;1.83;;;1.30;;
19747;SDS011;10032;51.386;12.516;2024-01-16T05:38:42;4.70;;;2.17;;
19747;SDS011;10032;51.386;12.516;2024-01-16T05:41:07;1.57;;;1.10;;
19747;SDS011;10032;51.386;12.516;2024-01-16T05:43:32;1.70;;;1.60;;
19747;SDS011;10032;51.386;12.516;2024-01-16T05:45:58;1.40;;;1.30;;
19747;SDS011;10032;51.386;12.516;2024-01-16T05:48:23;1.93;;;1.60;;
19747;SDS011;10032;51.386;12.516;2024-01-16T05:50:48;2.00;;;1.73;;
19747;SDS011;10032;51.386;12.516;2024-01-16T05:53:14;2.37;;;1.97;;
19747;SDS011;10032;51.386;12.516;2024-01-16T05:55:39;2.23;;;1.67;;
19747;SDS011;10032;51.386;12.516;2024-01-16T05:58:05;1.57;;;1.47;;
19747;SDS011;10032;51.386;12.516;2024-01-16T06:00:30;1.70;;;1.60;;
19747;SDS011;10032;51.386;12.516;2024-01-16T06:02:55;2.23;;;1.73;;
19747;SDS011;10032;51.386;12.516;2024-01-16T06:05:21;2.33;;;1.40;;
19747;SDS011;10032;51.386;12.516;2024-01-16T06:07:46;2.07;;;1.70;;
19747;SDS011;10032;51.386;12.516;2024-01-16T06:10:12;2.13;;;1.70;;
19747;SDS011;10032;51.386;12.516;2024-01-16T06:12:38;2.10;;;1.73;;
19747;SDS011;10032;51.386;12.516;2024-01-16T06:15:04;2.17;;;1.73;;
19747;SDS011;10032;51.386;12.516;2024-01-16T06:17:30;1.50;;;1.37;;
19747;SDS011;10032;51.386;12.516;2024-01-16T06:19:55;3.07;;;2.30;;
19747;SDS011;10032;51.386;12.516;2024-01-16T06:22:21;2.17;;;1.40;;
19747;SDS011;10032;51.386;12.516;2024-01-16T06:24:46;1.60;;;1.50;;
19747;SDS011;10032;51.386;12.516;2024-01-16T06:27:11;2.53;;;2.33;;
19747;SDS011;10032;51.386;12.516;2024-01-16T06:29:44;2.40;;;1.60;;
19747;SDS011;10032;51.386;12.516;2024-01-16T06:32:12;2.40;;;1.87;;
19747;SDS011;10032;51.386;12.516;2024-01-16T06:34:38;2.30;;;1.90;;
19747;SDS011;10032;51.386;12.516;2024-01-16T06:37:03;2.17;;;1.70;;
19747;SDS011;10032;51.386;12.516;2024-01-16T06:39:29;3.07;;;1.83;;
19747;SDS011;10032;51.386;12.516;2024-01-16T06:41:54;2.10;;;1.80;;
19747;SDS011;10032;51.386;12.516;2024-01-16T06:44:20;2.37;;;2.07;;
19747;SDS011;10032;51.386;12.516;2024-01-16T06:46:45;1.53;;;1.37;;
19747;SDS011;10032;51.386;12.516;2024-01-16T06:49:11;6.30;;;1.17;;
19747;SDS011;10032;51.386;12.516;2024-01-16T06:51:36;2.63;;;1.50;;
19747;SDS011;10032;51.386;12.516;2024-01-16T06:54:01;2.03;;;1.87;;
19747;SDS011;10032;51.386;12.516;2024-01-16T06:56:28;2.33;;;2.13;;
19747;SDS011;10032;51.386;12.516;2024-01-16T06:58:54;1.30;;;1.20;;
19747;SDS011;10032;51.386;12.516;2024-01-16T07:01:19;1.60;;;1.50;;
19747;SDS011;10032;51.386;12.516;2024-01-16T07:03:45;4.70;;;1.80;;
19747;SDS011;10032;51.386;12.516;2024-01-16T07:06:10;1.70;;;1.40;;
19747;SDS011;10032;51.386;12.516;2024-01-16T07:08:36;2.33;;;1.77;;
19747;SDS011;10032;51.386;12.516;2024-01-16T07:11:02;4.73;;;2.43;;
19747;SDS011;10032;51.386;12.516;2024-01-16T07:13:27;4.87;;;1.83;;
19747;SDS011;10032;51.386;12.516;2024-01-16T07:15:53;2.57;;;1.83;;
19747;SDS011;10032;51.386;12.516;2024-01-16T07:18:18;4.37;;;2.80;;
19747;SDS011;10032;51.386;12.516;2024-01-16T07:20:43;1.90;;;1.40;;
19747;SDS011;10032;51.386;12.516;2024-01-16T07:23:10;1.30;;;1.20;;
19747;SDS011;10032;51.386;12.516;2024-01-16T07:25:36;2.97;;;2.07;;
19747;SDS011;10032;51.386;12.516;2024-01-16T07:28:01;1.67;;;1.50;;
19747;SDS011;10032;51.386;12.516;2024-01-16T07:30:27;6.80;;;3.10;;
19747;SDS011;10032;51.386;12.516;2024-01-16T07:32:52;3.03;;;1.87;;
19747;SDS011;10032;51.386;12.516;2024-01-16T07:35:18;3.57;;;2.03;;
19747;SDS011;10032;51.386;12.516;2024-01-16T07:37:44;5.33;;;1.77;;
19747;SDS011;10032;51.386;12.516;2024-01-16T07:40:09;2.00;;;1.80;;
19747;SDS011;10032;51.386;12.516;2024-01-16T07:42:37;3.03;;;2.73;;
19747;SDS011;10032;51.386;12.516;2024-01-16T07:45:05;3.00;;;2.00;;
19747;SDS011;10032;51.386;12.516;2024-01-16T07:47:31;2.43;;;1.77;;
19747;SDS011;10032;51.386;12.516;2024-01-16T07:49:58;2.43;;;1.90;;
19747;SDS011;10032;51.386;12.516;2024-01-16T07:52:24;2.50;;;1.93;;
19747;SDS011;10032;51.386;12.516;2024-01-16T07:54:49;4.23;;;3.00;;
19747;SDS011;10032;51.386;12.516;2024-01-16T07:57:14;2.57;;;1.97;;
19747;SDS011;10032;51.386;12.516;2024-01-16T07:59:40;2.57;;;1.83;;
19747;SDS011;10032;51.386;12.516;2024-01-16T08:02:08;2.47;;;1.70;;
19747;SDS011;10032;51.386;12.516;2024-01-16T08:04:34;3.37;;;2.27;;
19747;SDS011;10032;51.386;12.516;2024-01-16T08:07:00;3.23;;;2.20;;
19747;SDS011;10032;51.386;12.516;2024-01-16T08:09:25;3.23;;;2.40;;
19747;SDS011;10032;51.386;12.516;2024-01-16T08:11:50;3.20;;;2.10;;
19747;SDS011;10032;51.386;12.516;2024-01-16T08:14:16;3.83;;;2.20;;
19747;SDS011;10032;51.386;12.516;2024-01-16T08:16:41;3.97;;;2.57;;
19747;SDS011;10032;51.386;12.516;2024-01-16T08:19:06;2.93;;;2.53;;
19747;SDS011;10032;51.386;12.516;2024-01-16T08:21:32;3.90;;;2.93;;
19747;SDS011;10032;51.386;12.516;2024-01-16T08:23:58;3.50;;;2.30;;
19747;SDS011;10032;51.386;12.516;2024-01-16T08:26:23;3.83;;;2.93;;
19747;SDS011;10032;51.386;12.516;2024-01-16T08:28:49;3.60;;;2.57;;
19747;SDS011;10032;51.386;12.516;2024-01-16T08:31:18;4.40;;;2.20;;
19747;SDS011;10032;51.386;12.516;2024-01-16T08:33:44;6.13;;;2.77;;
19747;SDS011;10032;51.386;12.516;2024-01-16T08:36:10;4.30;;;3.13;;
19747;SDS011;10032;51.386;12.516;2024-01-16T08:38:35;5.57;;;3.17;;
19747;SDS011;10032;51.386;12.516;2024-01-16T08:41:01;4.27;;;1.97;;
19747;SDS011;10032;51.386;12.516;2024-01-16T08:43:26;4.27;;;3.20;;
19747;SDS011;10032;51.386;12.516;2024-01-16T08:45:51;4.17;;;2.93;;
19747;SDS011;10032;51.386;12.516;2024-01-16T08:48:17;10.43;;;3.70;;
19747;SDS011;10032;51.386;12.516;2024-01-16T08:50:42;3.80;;;2.67;;
19747;SDS011;10032;51.386;12.516;2024-01-16T08:53:07;6.37;;;2.53;;
19747;SDS011;10032;51.386;12.516;2024-01-16T08:55:33;2.33;;;2.00;;
19747;SDS011;10032;51.386;12.516;2024-01-16T08:57:58;4.27;;;2.63;;
19747;SDS011;10032;51.386;12.516;2024-01-16T09:00:24;4.80;;;2.17;;
19747;SDS011;10032;51.386;12.516;2024-01-16T09:02:49;4.13;;;2.93;;
19747;SDS011;10032;51.386;12.516;2024-01-16T09:05:15;3.53;;;2.10;;
19747;SDS011;10032;51.386;12.516;2024-01-16T09:07:41;3.47;;;2.33;;
19747;SDS011;10032;51.386;12.516;2024-01-16T09:10:06;2.93;;;2.00;;
19747;SDS011;10032;51.386;12.516;2024-01-16T09:12:32;6.33;;;2.93;;
19747;SDS011;10032;51.386;12.516;2024-01-16T09:14:58;3.77;;;2.53;;
19747;SDS011;10032;51.386;12.516;2024-01-16T09:17:24;2.83;;;2.20;;
19747;SDS011;10032;51.386;12.516;2024-01-16T09:19:51;3.77;;;2.50;;
19747;SDS011;10032;51.386;12.516;2024-01-16T09:22:16;5.00;;;2.70;;
19747;SDS011;10032;51.386;12.516;2024-01-16T09:24:43;4.70;;;2.80;;
19747;SDS011;10032;51.386;12.516;2024-01-16T09:27:08;3.30;;;2.53;;
19747;SDS011;10032;51.386;12.516;2024-01-16T09:29:35;2.13;;;1.80;;
19747;SDS011;10032;51.386;12.516;2024-01-16T09:32:03;2.43;;;2.10;;
19747;SDS011;10032;51.386;12.516;2024-01-16T09:34:29;3.60;;;2.47;;
19747;SDS011;10032;51.386;12.516;2024-01-16T09:36:55;4.00;;;2.63;;
19747;SDS011;10032;51.386;12.516;2024-01-16T09:39:24;2.97;;;1.90;;
19747;SDS011;10032;51.386;12.516;2024-01-16T09:41:49;3.80;;;2.43;;
19747;SDS011;10032;51.386;12.516;2024-01-16T09:44:14;4.03;;;2.10;;
19747;SDS011;10032;51.386;12.516;2024-01-16T09:46:40;3.40;;;2.37;;
19747;SDS011;10032;51.386;12.516;2024-01-16T09:49:11;3.37;;;1.90;;
19747;SDS011;10032;51.386;12.516;2024-01-16T09:51:37;3.50;;;2.53;;
19747;SDS011;10032;51.386;12.516;2024-01-16T09:54:02;3.80;;;1.90;;
19747;SDS011;10032;51.386;12.516;2024-01-16T09:56:33;2.27;;;2.07;;
19747;SDS011;10032;51.386;12.516;2024-01-16T09:59:05;3.70;;;1.90;;
19747;SDS011;10032;51.386;12.516;2024-01-16T10:01:31;3.80;;;2.00;;
19747;SDS011;10032;51.386;12.516;2024-01-16T10:03:57;3.77;;;2.27;;
19747;SDS011;10032;51.386;12.516;2024-01-16T10:06:24;2.37;;;1.80;;
19747;SDS011;10032;51.386;12.516;2024-01-16T10:08:52;2.30;;;2.00;;
19747;SDS011;10032;51.386;12.516;2024-01-16T10:11:17;3.67;;;2.77;;
19747;SDS011;10032;51.386;12.516;2024-01-16T10:13:43;3.77;;;1.80;;
19747;SDS011;10032;51.386;12.516;2024-01-16T10:16:09;3.60;;;2.70;;
19747;SDS011;10032;51.386;12.516;2024-01-16T10:18:34;2.70;;;2.00;;
19747;SDS011;10032;51.386;12.516;2024-01-16T10:21:00;3.03;;;2.20;;
19747;SDS011;10032;51.386;12.516;2024-01-16T10:23:29;2.23;;;1.80;;
19747;SDS011;10032;51.386;12.516;2024-01-16T10:28:40;5.80;;;2.73;;
19747;SDS011;10032;51.386;12.516;2024-01-16T10:31:10;5.13;;;2.53;;
19747;SDS011;10032;51.386;12.516;2024-01-16T10:33:37;2.50;;;2.07;;
19747;SDS011;10032;51.386;12.516;2024-01-16T10:36:11;3.07;;;2.17;;
19747;SDS011;10032;51.386;12.516;2024-01-16T10:38:37;2.73;;;2.03;;
19747;SDS011;10032;51.386;12.516;2024-01-16T10:41:12;3.27;;;2.17;;
19747;SDS011;10032;51.386;12.516;2024-01-16T10:43:39;2.50;;;2.17;;
19747;SDS011;10032;51.386;12.516;2024-01-16T10:48:34;3.33;;;2.00;;
19747;SDS011;10032;51.386;12.516;2024-01-16T10:51:00;3.20;;;1.70;;
19747;SDS011;10032;51.386;12.516;2024-01-16T10:53:27;2.77;;;1.87;;
19747;SDS011;10032;51.386;12.516;2024-01-16T10:55:57;2.40;;;1.70;;
19747;SDS011;10032;51.386;12.516;2024-01-16T10:58:26;3.60;;;2.10;;
19747;SDS011;10032;51.386;12.516;2024-01-16T11:00:52;3.80;;;2.10;;
19747;SDS011;10032;51.386;12.516;2024-01-16T11:03:18;2.90;;;2.20;;
19747;SDS011;10032;51.386;12.516;2024-01-16T11:05:49;2.27;;;1.90;;
19747;SDS011;10032;51.386;12.516;2024-01-16T11:08:15;3.40;;;1.97;;
19747;SDS011;10032;51.386;12.516;2024-01-16T11:10:42;2.00;;;1.70;;
19747;SDS011;10032;51.386;12.516;2024-01-16T11:13:08;5.17;;;2.90;;
19747;SDS011;10032;51.386;12.516;2024-01-16T11:15:35;2.83;;;2.50;;
19747;SDS011;10032;51.386;12.516;2024-01-16T11:18:03;2.63;;;2.33;;
19747;SDS011;10032;51.386;12.516;2024-01-16T11:20:29;2.20;;;1.93;;
19747;SDS011;10032;51.386;12.516;2024-01-16T11:22:56;5.80;;;1.93;;
19747;SDS011;10032;51.386;12.516;2024-01-16T11:25:30;3.37;;;1.70;;
19747;SDS011;10032;51.386;12.516;2024-01-16T11:28:07;4.57;;;2.20;;
19747;SDS011;10032;51.386;12.516;2024-01-16T11:30:37;6.97;;;2.27;;
19747;SDS011;10032;51.386;12.516;2024-01-16T11:33:02;2.60;;;1.97;;
19747;SDS011;10032;51.386;12.516;2024-01-16T11:35:34;2.73;;;1.73;;
19747;SDS011;10032;51.386;12.516;2024-01-16T11:38:24;2.60;;;1.90;;
19747;SDS011;10032;51.386;12.516;2024-01-16T11:40:51;3.43;;;1.90;;
19747;SDS011;10032;51.386;12.516;2024-01-16T11:45:58;2.33;;;1.77;;
19747;SDS011;10032;51.386;12.516;2024-01-16T11:48:24;2.63;;;1.80;;
19747;SDS011;10032;51.386;12.516;2024-01-16T11:50:50;4.50;;;2.70;;
19747;SDS011;10032;51.386;12.516;2024-01-16T12:01:37;3.33;;;1.80;;
19747;SDS011;10032;51.386;12.516;2024-01-16T12:04:06;2.57;;;2.37;;
19747;SDS011;10032;51.386;12.516;2024-01-16T12:06:33;2.33;;;1.80;;
19747;SDS011;10032;51.386;12.516;2024-01-16T12:09:12;2.17;;;1.87;;
19747;SDS011;10032;51.386;12.516;2024-01-16T12:11:38;3.33;;;2.00;;
19747;SDS011;10032;51.386;12.516;2024-01-16T12:14:03;4.10;;;2.10;;
19747;SDS011;10032;51.386;12.516;2024-01-16T12:16:29;1.70;;;1.60;;
19747;SDS011;10032;51.386;12.516;2024-01-16T12:19:05;3.20;;;2.43;;
19747;SDS011;10032;51.386;12.516;2024-01-16T12:21:32;3.60;;;2.07;;
19747;SDS011;10032;51.386;12.516;2024-01-16T12:23:59;3.20;;;2.10;;
19747;SDS011;10032;51.386;12.516;2024-01-16T12:26:24;2.47;;;2.07;;
19747;SDS011;10032;51.386;12.516;2024-01-16T12:28:53;2.77;;;1.90;;
19747;SDS011;10032;51.386;12.516;2024-01-16T12:31:19;2.57;;;1.87;;
19747;SDS011;10032;51.386;12.516;2024-01-16T12:33:44;4.53;;;3.53;;
19747;SDS011;10032;51.386;12.516;2024-01-16T12:36:09;3.40;;;2.30;;
19747;SDS011;10032;51.386;12.516;2024-01-16T12:38:35;4.60;;;2.60;;
19747;SDS011;10032;51.386;12.516;2024-01-16T12:41:01;5.83;;;2.63;;
19747;SDS011;10032;51.386;12.516;2024-01-16T12:43:31;4.30;;;2.53;;
19747;SDS011;10032;51.386;12.516;2024-01-16T12:45:58;2.57;;;2.37;;
19747;SDS011;10032;51.386;12.516;2024-01-16T12:48:24;2.97;;;2.10;;
19747;SDS011;10032;51.386;12.516;2024-01-16T12:50:50;4.50;;;2.40;;
19747;SDS011;10032;51.386;12.516;2024-01-16T12:53:16;3.80;;;2.37;;
19747;SDS011;10032;51.386;12.516;2024-01-16T12:55:44;3.97;;;2.50;;
19747;SDS011;10032;51.386;12.516;2024-01-16T12:58:14;5.00;;;2.73;;
19747;SDS011;10032;51.386;12.516;2024-01-16T13:00:40;3.40;;;2.73;;
19747;SDS011;10032;51.386;12.516;2024-01-16T13:03:06;4.27;;;2.43;;
19747;SDS011;10032;51.386;12.516;2024-01-16T13:05:31;3.27;;;2.67;;
19747;SDS011;10032;51.386;12.516;2024-01-16T13:08:01;5.67;;;2.60;;
19747;SDS011;10032;51.386;12.516;2024-01-16T13:10:29;2.93;;;2.27;;
19747;SDS011;10032;51.386;12.516;2024-01-16T13:15:44;5.93;;;3.53;;
19747;SDS011;10032;51.386;12.516;2024-01-16T13:18:20;3.67;;;2.80;;
19747;SDS011;10032;51.386;12.516;2024-01-16T13:20:47;3.20;;;2.47;;
19747;SDS011;10032;51.386;12.516;2024-01-16T13:23:16;5.13;;;3.13;;
19747;SDS011;10032;51.386;12.516;2024-01-16T13:25:43;2.97;;;2.53;;
19747;SDS011;10032;51.386;12.516;2024-01-16T13:28:15;4.23;;;2.50;;
19747;SDS011;10032;51.386;12.516;2024-01-16T13:30:42;4.90;;;2.90;;
19747;SDS011;10032;51.386;12.516;2024-01-16T13:33:08;4.43;;;3.07;;
19747;SDS011;10032;51.386;12.516;2024-01-16T13:35:43;3.53;;;2.57;;
19747;SDS011;10032;51.386;12.516;2024-01-16T13:38:10;3.10;;;2.43;;
19747;SDS011;10032;51.386;12.516;2024-01-16T13:40:36;6.23;;;2.63;;
19747;SDS011;10032;51.386;12.516;2024-01-16T13:43:02;3.43;;;2.33;;
19747;SDS011;10032;51.386;12.516;2024-01-16T13:45:28;2.80;;;2.17;;
19747;SDS011;10032;51.386;12.516;2024-01-16T13:47:54;3.07;;;2.63;;
19747;SDS011;10032;51.386;12.516;2024-01-16T13:50:20;3.00;;;2.60;;
19747;SDS011;10032;51.386;12.516;2024-01-16T13:52:47;3.53;;;2.33;;
19747;SDS011;10032;51.386;12.516;2024-01-16T13:55:13;3.20;;;2.43;;
19747;SDS011;10032;51.386;12.516;2024-01-16T13:57:38;3.40;;;2.33;;
19747;SDS011;10032;51.386;12.516;2024-01-16T14:00:04;3.43;;;2.57;;
19747;SDS011;10032;51.386;12.516;2024-01-16T14:02:31;3.07;;;2.13;;
19747;SDS011;10032;51.386;12.516;2024-01-16T14:04:56;3.13;;;2.23;;
19747;SDS011;10032;51.386;12.516;2024-01-16T14:07:22;3.50;;;2.30;;
19747;SDS011;10032;51.386;12.516;2024-01-16T14:09:47;4.00;;;2.97;;
19747;SDS011;10032;51.386;12.516;2024-01-16T14:12:13;4.47;;;3.23;;
19747;SDS011;10032;51.386;12.516;2024-01-16T14:14:39;3.47;;;2.10;;
19747;SDS011;10032;51.386;12.516;2024-01-16T14:17:06;3.17;;;2.37;;
19747;SDS011;10032;51.386;12.516;2024-01-16T14:19:31;2.67;;;2.23;;
19747;SDS011;10032;51.386;12.516;2024-01-16T14:21:59;2.97;;;2.40;;
19747;SDS011;10032;51.386;12.516;2024-01-16T14:24:25;4.80;;;2.60;;
19747;SDS011;10032;51.386;12.516;2024-01-16T14:26:50;4.27;;;2.20;;
19747;SDS011;10032;51.386;12.516;2024-01-16T14:29:16;3.23;;;2.40;;
19747;SDS011;10032;51.386;12.516;2024-01-16T14:31:41;5.37;;;2.80;;
19747;SDS011;10032;51.386;12.516;2024-01-16T14:34:11;4.63;;;2.60;;
19747;SDS011;10032;51.386;12.516;2024-01-16T14:36:39;3.57;;;2.70;;
19747;SDS011;10032;51.386;12.516;2024-01-16T14:39:05;4.33;;;2.90;;
19747;SDS011;10032;51.386;12.516;2024-01-16T14:41:30;3.53;;;2.97;;
19747;SDS011;10032;51.386;12.516;2024-01-16T14:43:56;3.97;;;2.77;;
19747;SDS011;10032;51.386;12.516;2024-01-16T14:46:22;4.40;;;2.73;;